Terminal Aerodrome Forecast
Issued by NWS Cleveland, OH

Home | Current Version | Previous Version | Graphics & Text | Print | Product List | Glossary On
Versions: 1 2 3 4 5 6 7 8 9 10 11 12 13 14 15 16 17 18 19 20 21 22 23 24 25 26 27
097
FTUS41 KCLE 201458 AAA
TAFCLE
TAF AMD
KCLE 201458Z 2015/2118 18008KT P6SM SCT025 OVC060
     FM202100 18008KT P6SM VCSH OVC035
      TEMPO 2021/2101 5SM -SHRA BKN015
     FM210200 35004KT 5SM BR OVC006
     FM211200 33008KT 5SM BR OVC010=

USA.gov is the U.S. government's official web portal to all federal, state and local government web resources and services.